createdAt,value
2023-05-05T00:01:05.753Z,21.00
2023-05-05T00:03:36.154Z,21.00
2023-05-05T00:06:08.349Z,21.00
2023-05-05T00:08:37.817Z,21.00
2023-05-05T00:11:06.833Z,21.00
2023-05-05T00:13:36.145Z,21.00
2023-05-05T00:16:05.253Z,21.00
2023-05-05T00:18:34.460Z,21.00
2023-05-05T00:21:04.968Z,21.00
2023-05-05T00:23:34.307Z,21.00
2023-05-05T00:26:02.981Z,21.00
2023-05-05T00:28:31.815Z,21.00
2023-05-05T00:31:00.776Z,21.00
2023-05-05T00:33:29.782Z,21.00
2023-05-05T00:35:58.203Z,21.00
2023-05-05T00:38:27.623Z,21.00
2023-05-05T00:40:56.298Z,21.00
2023-05-05T00:43:25.207Z,21.00
2023-05-05T00:46:03.245Z,21.00
2023-05-05T00:48:32.306Z,21.00
2023-05-05T00:51:01.105Z,21.00
2023-05-05T00:53:29.936Z,21.00
2023-05-05T00:55:58.443Z,21.00
2023-05-05T00:58:27.706Z,21.00
2023-05-05T01:00:56.686Z,21.00
2023-05-05T01:03:25.579Z,21.00
2023-05-05T01:06:25.295Z,21.00
2023-05-05T01:09:28.961Z,21.00
2023-05-05T01:12:27.825Z,21.00
2023-05-05T01:15:15.988Z,21.00
2023-05-05T01:17:57.056Z,21.00
2023-05-05T01:20:49.924Z,21.00
2023-05-05T01:23:57.505Z,21.00
2023-05-05T01:26:51.545Z,21.00
2023-05-05T01:30:18.032Z,20.90
2023-05-05T01:32:57.124Z,21.00
2023-05-05T01:35:56.564Z,21.00
2023-05-05T01:38:37.301Z,20.90
2023-05-05T01:41:17.805Z,21.00
2023-05-05T01:43:50.183Z,20.90
2023-05-05T01:46:19.336Z,21.00
2023-05-05T01:48:48.541Z,20.90
2023-05-05T01:51:18.391Z,21.00
2023-05-05T01:53:47.547Z,20.90
2023-05-05T01:56:16.622Z,20.90
2023-05-05T01:58:45.770Z,20.90
2023-05-05T02:01:14.368Z,20.90
2023-05-05T02:03:43.384Z,20.90
2023-05-05T02:06:11.959Z,20.90
2023-05-05T02:08:40.920Z,20.90
2023-05-05T02:11:10.308Z,20.90
2023-05-05T02:13:39.973Z,20.90
2023-05-05T02:16:08.629Z,20.90
2023-05-05T02:18:39.166Z,20.90
2023-05-05T02:21:08.192Z,20.90
2023-05-05T02:23:37.037Z,20.90
2023-05-05T02:26:10.145Z,20.90
2023-05-05T02:29:08.712Z,20.90
2023-05-05T02:31:44.373Z,20.90
2023-05-05T02:34:14.137Z,20.90
2023-05-05T02:36:42.797Z,20.90
2023-05-05T02:39:26.295Z,20.90
2023-05-05T02:41:55.467Z,20.90
2023-05-05T02:44:28.285Z,20.90
2023-05-05T02:46:58.085Z,20.90
2023-05-05T02:49:27.341Z,20.80
2023-05-05T02:52:01.276Z,20.90
2023-05-05T02:54:36.215Z,20.90
2023-05-05T02:57:11.659Z,20.90
2023-05-05T03:00:17.185Z,20.80
2023-05-05T03:02:57.954Z,20.80
2023-05-05T03:05:32.139Z,20.90
2023-05-05T03:09:06.691Z,20.80
2023-05-05T03:11:47.157Z,20.80
2023-05-05T03:14:19.350Z,20.80
2023-05-05T03:16:50.273Z,20.80
2023-05-05T03:19:19.464Z,20.80
2023-05-05T03:21:52.664Z,20.80
2023-05-05T03:24:21.706Z,20.80
2023-05-05T03:26:59.322Z,20.80
2023-05-05T03:29:34.321Z,20.80
2023-05-05T03:32:04.999Z,20.80
2023-05-05T03:34:37.506Z,20.80
2023-05-05T03:37:07.726Z,20.80
2023-05-05T03:39:36.332Z,20.80
2023-05-05T03:42:06.209Z,20.80
2023-05-05T03:44:36.808Z,20.80
2023-05-05T03:47:06.080Z,20.80
2023-05-05T03:49:38.384Z,20.80
2023-05-05T03:52:07.562Z,20.80
2023-05-05T03:54:36.959Z,20.80
2023-05-05T03:57:05.827Z,20.70
2023-05-05T03:59:34.402Z,20.80
2023-05-05T04:02:03.493Z,20.70
2023-05-05T04:04:32.521Z,20.70
2023-05-05T04:07:01.606Z,20.80
2023-05-05T04:09:30.175Z,20.80
2023-05-05T04:11:59.445Z,20.80
2023-05-05T04:14:29.258Z,20.80
2023-05-05T04:16:58.436Z,20.80
2023-05-05T04:19:27.026Z,20.70
2023-05-05T04:21:56.005Z,20.80
2023-05-05T04:24:25.288Z,20.80
2023-05-05T04:26:56.976Z,20.80
2023-05-05T04:29:26.246Z,20.70
2023-05-05T04:31:56.344Z,20.80
2023-05-05T04:34:25.194Z,20.70
2023-05-05T04:36:54.494Z,20.70
2023-05-05T04:39:23.177Z,20.80
2023-05-05T04:41:52.476Z,20.80
2023-05-05T04:44:21.211Z,20.90
2023-05-05T04:46:50.680Z,20.80
2023-05-05T04:49:19.348Z,20.80
2023-05-05T04:51:48.327Z,20.80
2023-05-05T04:54:16.868Z,20.80
2023-05-05T04:56:45.816Z,20.80
2023-05-05T04:59:15.589Z,20.80
2023-05-05T05:01:44.580Z,20.80
2023-05-05T05:04:14.195Z,20.80
2023-05-05T05:06:43.267Z,20.80
2023-05-05T05:09:12.335Z,20.90
2023-05-05T05:11:41.245Z,20.90
2023-05-05T05:14:09.809Z,20.90
2023-05-05T05:16:39.467Z,20.90
2023-05-05T05:19:08.171Z,20.90
2023-05-05T05:21:37.143Z,20.90
2023-05-05T05:24:05.997Z,20.90
2023-05-05T05:26:34.943Z,20.90
2023-05-05T05:29:04.886Z,20.80
2023-05-05T05:31:34.687Z,20.60
2023-05-05T05:34:03.994Z,20.40
2023-05-05T05:36:33.424Z,20.30
2023-05-05T05:39:02.111Z,20.20
2023-05-05T05:41:31.224Z,20.10
2023-05-05T05:44:00.176Z,20.00
2023-05-05T05:46:30.048Z,20.10
2023-05-05T05:48:59.942Z,20.00
2023-05-05T05:51:29.125Z,20.00
2023-05-05T05:53:59.034Z,19.90
2023-05-05T05:56:28.431Z,20.00
2023-05-05T05:58:57.421Z,20.10
2023-05-05T06:01:26.473Z,20.20
2023-05-05T06:03:55.521Z,20.20
2023-05-05T06:06:24.601Z,20.30
2023-05-05T06:08:53.229Z,20.40
2023-05-05T06:11:22.526Z,20.40
2023-05-05T06:13:51.268Z,20.50
2023-05-05T06:16:20.591Z,20.50
2023-05-05T06:18:50.784Z,20.50
2023-05-05T06:21:20.921Z,20.50
2023-05-05T06:23:49.763Z,20.50
2023-05-05T06:26:21.751Z,20.50
2023-05-05T06:28:50.625Z,20.60
2023-05-05T06:31:19.525Z,20.60
2023-05-05T06:33:48.101Z,20.60
2023-05-05T06:36:16.956Z,20.60
2023-05-05T06:38:45.587Z,20.60
2023-05-05T06:41:14.527Z,20.60
2023-05-05T06:43:44.484Z,20.50
2023-05-05T06:46:16.024Z,20.40
2023-05-05T06:48:44.677Z,20.40
2023-05-05T06:51:13.566Z,20.40
2023-05-05T06:53:42.374Z,20.40
2023-05-05T06:56:11.763Z,20.40
2023-05-05T06:58:40.385Z,20.40
2023-05-05T07:01:09.815Z,20.50
2023-05-05T07:03:38.485Z,20.50
2023-05-05T07:06:07.492Z,20.50
2023-05-05T07:08:36.123Z,20.60
2023-05-05T07:11:05.005Z,20.60
2023-05-05T07:13:33.601Z,20.60
2023-05-05T07:16:02.511Z,20.60
2023-05-05T07:18:31.004Z,20.60
2023-05-05T07:20:59.917Z,20.60
2023-05-05T07:23:28.506Z,20.70
2023-05-05T07:25:57.409Z,20.70
2023-05-05T07:28:26.686Z,20.70
2023-05-05T07:30:55.582Z,20.70
2023-05-05T07:33:24.088Z,20.80
2023-05-05T07:35:52.967Z,20.80
2023-05-05T07:38:21.550Z,20.80
2023-05-05T07:40:50.476Z,20.80
2023-05-05T07:43:19.118Z,20.80
2023-05-05T07:45:48.141Z,20.90
2023-05-05T07:48:16.901Z,20.90
2023-05-05T07:50:45.831Z,20.90
2023-05-05T07:53:15.408Z,20.90
2023-05-05T07:55:44.413Z,20.90
2023-05-05T07:58:13.010Z,20.90
2023-05-05T08:00:44.181Z,21.00
2023-05-05T08:03:13.269Z,21.00
2023-05-05T08:06:12.471Z,21.00
2023-05-05T08:08:40.892Z,21.00
2023-05-05T08:11:09.773Z,21.00
2023-05-05T08:13:39.376Z,21.00
2023-05-05T08:16:08.484Z,21.00
2023-05-05T08:18:38.569Z,21.10
2023-05-05T08:21:09.438Z,21.10
2023-05-05T08:23:38.873Z,21.10
2023-05-05T08:26:09.385Z,21.10
2023-05-05T08:28:37.889Z,21.10
2023-05-05T08:31:07.115Z,21.10
2023-05-05T08:33:35.712Z,21.10
2023-05-05T08:36:05.810Z,21.10
2023-05-05T08:38:34.349Z,21.20
2023-05-05T08:41:03.933Z,21.20
2023-05-05T08:43:32.994Z,21.20
2023-05-05T08:46:01.793Z,21.20
2023-05-05T08:48:30.219Z,21.20
2023-05-05T08:51:01.390Z,21.20
2023-05-05T08:53:47.401Z,21.20
2023-05-05T08:56:16.411Z,21.20
2023-05-05T08:58:44.976Z,21.30
2023-05-05T09:01:14.444Z,21.30
2023-05-05T09:03:43.645Z,21.30
2023-05-05T09:06:12.610Z,21.30
2023-05-05T09:08:41.780Z,21.30
2023-05-05T09:11:10.736Z,21.40
2023-05-05T09:13:47.892Z,21.30
2023-05-05T09:16:16.944Z,21.30
2023-05-05T09:18:45.773Z,21.30
2023-05-05T09:21:25.017Z,21.30
2023-05-05T09:24:12.738Z,21.40
2023-05-05T09:26:46.927Z,21.40
2023-05-05T09:29:22.170Z,21.40
2023-05-05T09:32:11.073Z,21.50
2023-05-05T09:34:39.702Z,21.40
2023-05-05T09:37:08.582Z,21.50
2023-05-05T09:39:37.211Z,21.40
2023-05-05T09:42:06.336Z,21.50
2023-05-05T09:44:36.562Z,21.60
2023-05-05T09:47:09.643Z,21.50
2023-05-05T09:49:58.154Z,21.50
2023-05-05T09:52:27.263Z,21.60
2023-05-05T09:54:57.339Z,21.60
2023-05-05T09:57:34.070Z,21.60
2023-05-05T10:00:04.530Z,21.60
2023-05-05T10:02:38.759Z,21.60
2023-05-05T10:05:14.956Z,21.60
2023-05-05T10:07:45.991Z,21.60
2023-05-05T10:10:18.721Z,21.60
2023-05-05T10:12:48.075Z,21.70
2023-05-05T10:15:17.048Z,21.70
2023-05-05T10:20:21.027Z,21.60
2023-05-05T10:33:27.328Z,21.70
